sensor_id;sensor_type;location;lat;lon;timestamp;P1;durP1;ratioP1;P2;durP2;ratioP2
27804;SDS011;15183;51.350;11.102;2022-10-16T00:01:28;1.88;;;1.73;;
27804;SDS011;15183;51.350;11.102;2022-10-16T00:03:56;1.40;;;1.30;;
27804;SDS011;15183;51.350;11.102;2022-10-16T00:06:26;2.95;;;1.92;;
27804;SDS011;15183;51.350;11.102;2022-10-16T00:08:54;1.85;;;1.75;;
27804;SDS011;15183;51.350;11.102;2022-10-16T00:11:22;2.55;;;1.30;;
27804;SDS011;15183;51.350;11.102;2022-10-16T00:13:54;1.10;;;1.00;;
27804;SDS011;15183;51.350;11.102;2022-10-16T00:16:24;1.10;;;1.00;;
27804;SDS011;15183;51.350;11.102;2022-10-16T00:18:52;0.73;;;0.68;;
27804;SDS011;15183;51.350;11.102;2022-10-16T00:21:19;1.30;;;0.47;;
27804;SDS011;15183;51.350;11.102;2022-10-16T00:23:53;1.95;;;0.45;;
27804;SDS011;15183;51.350;11.102;2022-10-16T00:26:23;0.68;;;0.60;;
27804;SDS011;15183;51.350;11.102;2022-10-16T00:28:50;0.82;;;0.70;;
27804;SDS011;15183;51.350;11.102;2022-10-16T00:31:18;0.57;;;0.50;;
27804;SDS011;15183;51.350;11.102;2022-10-16T00:33:46;1.02;;;0.68;;
27804;SDS011;15183;51.350;11.102;2022-10-16T00:36:15;0.40;;;0.40;;
27804;SDS011;15183;51.350;11.102;2022-10-16T00:38:45;0.68;;;0.40;;
27804;SDS011;15183;51.350;11.102;2022-10-16T00:41:14;1.08;;;0.50;;
27804;SDS011;15183;51.350;11.102;2022-10-16T00:43:53;0.45;;;0.40;;
27804;SDS011;15183;51.350;11.102;2022-10-16T00:46:23;2.17;;;0.40;;
27804;SDS011;15183;51.350;11.102;2022-10-16T00:51:39;0.40;;;0.40;;
27804;SDS011;15183;51.350;11.102;2022-10-16T00:54:18;1.98;;;0.98;;
27804;SDS011;15183;51.350;11.102;2022-10-16T00:56:48;1.85;;;1.38;;
27804;SDS011;15183;51.350;11.102;2022-10-16T00:59:20;1.10;;;1.00;;
27804;SDS011;15183;51.350;11.102;2022-10-16T01:01:52;1.27;;;0.70;;
27804;SDS011;15183;51.350;11.102;2022-10-16T01:04:20;0.52;;;0.50;;
27804;SDS011;15183;51.350;11.102;2022-10-16T01:07:35;0.57;;;0.57;;
27804;SDS011;15183;51.350;11.102;2022-10-16T01:12:31;0.68;;;0.68;;
27804;SDS011;15183;51.350;11.102;2022-10-16T01:15:27;0.77;;;0.77;;
27804;SDS011;15183;51.350;11.102;2022-10-16T01:21:04;0.70;;;0.43;;
27804;SDS011;15183;51.350;11.102;2022-10-16T01:29:13;0.40;;;0.40;;
27804;SDS011;15183;51.350;11.102;2022-10-16T01:31:56;1.38;;;1.00;;
27804;SDS011;15183;51.350;11.102;2022-10-16T01:34:34;2.03;;;1.30;;
27804;SDS011;15183;51.350;11.102;2022-10-16T01:37:09;2.17;;;0.98;;
27804;SDS011;15183;51.350;11.102;2022-10-16T01:39:41;0.70;;;0.60;;
27804;SDS011;15183;51.350;11.102;2022-10-16T01:42:23;1.50;;;1.40;;
27804;SDS011;15183;51.350;11.102;2022-10-16T01:44:54;0.98;;;0.80;;
27804;SDS011;15183;51.350;11.102;2022-10-16T01:47:24;0.98;;;0.88;;
27804;SDS011;15183;51.350;11.102;2022-10-16T01:49:52;1.55;;;1.33;;
27804;SDS011;15183;51.350;11.102;2022-10-16T01:52:22;1.23;;;0.70;;
27804;SDS011;15183;51.350;11.102;2022-10-16T01:54:52;1.13;;;0.65;;
27804;SDS011;15183;51.350;11.102;2022-10-16T01:57:22;1.08;;;1.02;;
27804;SDS011;15183;51.350;11.102;2022-10-16T01:59:52;1.38;;;1.27;;
27804;SDS011;15183;51.350;11.102;2022-10-16T02:02:24;0.90;;;0.90;;
27804;SDS011;15183;51.350;11.102;2022-10-16T02:08:03;1.42;;;1.10;;
27804;SDS011;15183;51.350;11.102;2022-10-16T02:10:30;0.77;;;0.60;;
27804;SDS011;15183;51.350;11.102;2022-10-16T02:12:59;1.80;;;1.17;;
27804;SDS011;15183;51.350;11.102;2022-10-16T02:15:50;2.10;;;0.60;;
27804;SDS011;15183;51.350;11.102;2022-10-16T02:18:16;0.85;;;0.50;;
27804;SDS011;15183;51.350;11.102;2022-10-16T02:20:45;1.10;;;0.95;;
27804;SDS011;15183;51.350;11.102;2022-10-16T02:23:28;1.67;;;0.52;;
27804;SDS011;15183;51.350;11.102;2022-10-16T02:26:32;0.85;;;0.50;;
27804;SDS011;15183;51.350;11.102;2022-10-16T02:29:12;1.38;;;1.08;;
27804;SDS011;15183;51.350;11.102;2022-10-16T02:31:44;0.88;;;0.63;;
27804;SDS011;15183;51.350;11.102;2022-10-16T02:34:15;1.45;;;1.13;;
27804;SDS011;15183;51.350;11.102;2022-10-16T02:36:44;0.63;;;0.57;;
27804;SDS011;15183;51.350;11.102;2022-10-16T02:39:14;0.73;;;0.50;;
27804;SDS011;15183;51.350;11.102;2022-10-16T02:41:42;1.58;;;1.27;;
27804;SDS011;15183;51.350;11.102;2022-10-16T02:44:08;0.60;;;0.60;;
27804;SDS011;15183;51.350;11.102;2022-10-16T02:46:35;2.17;;;1.88;;
27804;SDS011;15183;51.350;11.102;2022-10-16T02:49:02;2.63;;;2.05;;
27804;SDS011;15183;51.350;11.102;2022-10-16T02:51:28;2.08;;;1.88;;
27804;SDS011;15183;51.350;11.102;2022-10-16T02:53:55;2.40;;;2.20;;
27804;SDS011;15183;51.350;11.102;2022-10-16T02:56:21;2.22;;;2.03;;
27804;SDS011;15183;51.350;11.102;2022-10-16T02:58:48;2.15;;;1.95;;
27804;SDS011;15183;51.350;11.102;2022-10-16T03:01:15;2.60;;;2.10;;
27804;SDS011;15183;51.350;11.102;2022-10-16T03:03:42;1.58;;;1.48;;
27804;SDS011;15183;51.350;11.102;2022-10-16T03:06:09;1.20;;;0.75;;
27804;SDS011;15183;51.350;11.102;2022-10-16T03:08:35;1.00;;;0.90;;
27804;SDS011;15183;51.350;11.102;2022-10-16T03:11:02;1.40;;;1.30;;
27804;SDS011;15183;51.350;11.102;2022-10-16T03:13:28;0.93;;;0.90;;
27804;SDS011;15183;51.350;11.102;2022-10-16T03:15:55;0.52;;;0.50;;
27804;SDS011;15183;51.350;11.102;2022-10-16T03:18:21;0.98;;;0.47;;
27804;SDS011;15183;51.350;11.102;2022-10-16T03:20:48;0.80;;;0.70;;
27804;SDS011;15183;51.350;11.102;2022-10-16T03:23:14;0.50;;;0.40;;
27804;SDS011;15183;51.350;11.102;2022-10-16T03:25:41;1.50;;;1.05;;
27804;SDS011;15183;51.350;11.102;2022-10-16T03:28:07;0.60;;;0.60;;
27804;SDS011;15183;51.350;11.102;2022-10-16T03:30:34;1.63;;;1.52;;
27804;SDS011;15183;51.350;11.102;2022-10-16T03:33:00;5.97;;;3.20;;
27804;SDS011;15183;51.350;11.102;2022-10-16T03:35:27;2.22;;;1.67;;
27804;SDS011;15183;51.350;11.102;2022-10-16T03:37:53;2.13;;;1.92;;
27804;SDS011;15183;51.350;11.102;2022-10-16T03:40:20;5.88;;;3.47;;
27804;SDS011;15183;51.350;11.102;2022-10-16T03:42:46;1.77;;;1.63;;
27804;SDS011;15183;51.350;11.102;2022-10-16T03:45:13;3.67;;;2.92;;
27804;SDS011;15183;51.350;11.102;2022-10-16T03:47:39;5.50;;;4.18;;
27804;SDS011;15183;51.350;11.102;2022-10-16T03:50:06;3.05;;;2.72;;
27804;SDS011;15183;51.350;11.102;2022-10-16T03:52:34;1.95;;;1.60;;
27804;SDS011;15183;51.350;11.102;2022-10-16T03:55:00;2.75;;;2.40;;
27804;SDS011;15183;51.350;11.102;2022-10-16T03:57:27;3.08;;;2.35;;
27804;SDS011;15183;51.350;11.102;2022-10-16T03:59:53;4.20;;;3.03;;
27804;SDS011;15183;51.350;11.102;2022-10-16T04:02:20;5.90;;;3.92;;
27804;SDS011;15183;51.350;11.102;2022-10-16T04:04:46;4.88;;;3.22;;
27804;SDS011;15183;51.350;11.102;2022-10-16T04:07:12;2.85;;;2.28;;
27804;SDS011;15183;51.350;11.102;2022-10-16T04:09:39;1.10;;;1.00;;
27804;SDS011;15183;51.350;11.102;2022-10-16T04:12:05;4.05;;;3.22;;
27804;SDS011;15183;51.350;11.102;2022-10-16T04:14:35;1.90;;;1.77;;
27804;SDS011;15183;51.350;11.102;2022-10-16T04:17:01;2.28;;;2.08;;
27804;SDS011;15183;51.350;11.102;2022-10-16T04:19:28;1.98;;;1.48;;
27804;SDS011;15183;51.350;11.102;2022-10-16T04:21:55;2.10;;;1.42;;
27804;SDS011;15183;51.350;11.102;2022-10-16T04:24:21;3.30;;;2.58;;
27804;SDS011;15183;51.350;11.102;2022-10-16T04:26:48;2.42;;;1.80;;
27804;SDS011;15183;51.350;11.102;2022-10-16T04:29:14;1.70;;;1.58;;
27804;SDS011;15183;51.350;11.102;2022-10-16T04:31:41;1.90;;;1.13;;
27804;SDS011;15183;51.350;11.102;2022-10-16T04:34:07;0.93;;;0.93;;
27804;SDS011;15183;51.350;11.102;2022-10-16T04:36:34;2.60;;;1.90;;
27804;SDS011;15183;51.350;11.102;2022-10-16T04:39:00;0.80;;;0.80;;
27804;SDS011;15183;51.350;11.102;2022-10-16T04:41:27;2.35;;;1.23;;
27804;SDS011;15183;51.350;11.102;2022-10-16T04:43:53;3.05;;;2.38;;
27804;SDS011;15183;51.350;11.102;2022-10-16T04:46:20;1.33;;;1.15;;
27804;SDS011;15183;51.350;11.102;2022-10-16T04:48:46;4.65;;;2.83;;
27804;SDS011;15183;51.350;11.102;2022-10-16T04:51:13;1.50;;;1.20;;
27804;SDS011;15183;51.350;11.102;2022-10-16T04:53:39;2.00;;;1.35;;
27804;SDS011;15183;51.350;11.102;2022-10-16T04:56:06;2.15;;;1.92;;
27804;SDS011;15183;51.350;11.102;2022-10-16T04:58:32;1.50;;;1.40;;
27804;SDS011;15183;51.350;11.102;2022-10-16T05:00:59;2.15;;;1.92;;
27804;SDS011;15183;51.350;11.102;2022-10-16T05:03:25;2.50;;;2.08;;
27804;SDS011;15183;51.350;11.102;2022-10-16T05:05:52;2.88;;;2.17;;
27804;SDS011;15183;51.350;11.102;2022-10-16T05:08:18;3.03;;;2.00;;
27804;SDS011;15183;51.350;11.102;2022-10-16T05:10:45;3.28;;;1.67;;
27804;SDS011;15183;51.350;11.102;2022-10-16T05:13:11;2.17;;;1.98;;
27804;SDS011;15183;51.350;11.102;2022-10-16T05:15:38;3.15;;;2.30;;
27804;SDS011;15183;51.350;11.102;2022-10-16T05:18:04;1.92;;;1.55;;
27804;SDS011;15183;51.350;11.102;2022-10-16T05:20:31;1.48;;;1.20;;
27804;SDS011;15183;51.350;11.102;2022-10-16T05:22:57;2.53;;;1.05;;
27804;SDS011;15183;51.350;11.102;2022-10-16T05:25:24;3.50;;;2.38;;
27804;SDS011;15183;51.350;11.102;2022-10-16T05:27:50;1.55;;;0.90;;
27804;SDS011;15183;51.350;11.102;2022-10-16T05:30:17;1.25;;;1.08;;
27804;SDS011;15183;51.350;11.102;2022-10-16T05:32:49;2.75;;;1.63;;
27804;SDS011;15183;51.350;11.102;2022-10-16T05:35:17;2.65;;;1.48;;
27804;SDS011;15183;51.350;11.102;2022-10-16T05:37:44;5.55;;;3.60;;
27804;SDS011;15183;51.350;11.102;2022-10-16T05:40:11;3.30;;;1.63;;
27804;SDS011;15183;51.350;11.102;2022-10-16T05:42:38;3.63;;;2.42;;
27804;SDS011;15183;51.350;11.102;2022-10-16T05:45:06;2.55;;;2.08;;
27804;SDS011;15183;51.350;11.102;2022-10-16T05:47:35;4.43;;;2.08;;
27804;SDS011;15183;51.350;11.102;2022-10-16T05:50:02;1.65;;;1.15;;
27804;SDS011;15183;51.350;11.102;2022-10-16T05:52:29;1.63;;;1.52;;
27804;SDS011;15183;51.350;11.102;2022-10-16T05:55:02;4.95;;;3.67;;
27804;SDS011;15183;51.350;11.102;2022-10-16T05:57:30;4.68;;;3.53;;
27804;SDS011;15183;51.350;11.102;2022-10-16T05:59:56;3.08;;;2.75;;
27804;SDS011;15183;51.350;11.102;2022-10-16T06:02:23;4.97;;;3.75;;
27804;SDS011;15183;51.350;11.102;2022-10-16T06:04:53;6.50;;;4.72;;
27804;SDS011;15183;51.350;11.102;2022-10-16T06:07:19;16.73;;;10.20;;
27804;SDS011;15183;51.350;11.102;2022-10-16T06:09:50;10.18;;;7.70;;
27804;SDS011;15183;51.350;11.102;2022-10-16T06:12:18;8.20;;;6.30;;
27804;SDS011;15183;51.350;11.102;2022-10-16T06:14:45;9.88;;;7.05;;
27804;SDS011;15183;51.350;11.102;2022-10-16T06:17:15;8.93;;;7.10;;
27804;SDS011;15183;51.350;11.102;2022-10-16T06:19:41;15.38;;;10.80;;
27804;SDS011;15183;51.350;11.102;2022-10-16T06:22:08;9.10;;;7.07;;
27804;SDS011;15183;51.350;11.102;2022-10-16T06:24:34;12.98;;;9.52;;
27804;SDS011;15183;51.350;11.102;2022-10-16T06:27:01;8.05;;;5.70;;
27804;SDS011;15183;51.350;11.102;2022-10-16T06:29:29;5.93;;;5.03;;
27804;SDS011;15183;51.350;11.102;2022-10-16T06:31:56;6.22;;;5.35;;
27804;SDS011;15183;51.350;11.102;2022-10-16T06:34:22;6.13;;;5.05;;
27804;SDS011;15183;51.350;11.102;2022-10-16T06:36:49;5.28;;;3.70;;
27804;SDS011;15183;51.350;11.102;2022-10-16T06:39:15;8.40;;;5.97;;
27804;SDS011;15183;51.350;11.102;2022-10-16T06:41:42;10.95;;;6.78;;
27804;SDS011;15183;51.350;11.102;2022-10-16T06:44:09;10.48;;;7.88;;
27804;SDS011;15183;51.350;11.102;2022-10-16T06:46:35;11.68;;;8.43;;
27804;SDS011;15183;51.350;11.102;2022-10-16T06:49:02;5.82;;;4.55;;
27804;SDS011;15183;51.350;11.102;2022-10-16T06:51:28;3.92;;;2.70;;
27804;SDS011;15183;51.350;11.102;2022-10-16T06:53:57;6.07;;;4.35;;
27804;SDS011;15183;51.350;11.102;2022-10-16T06:56:25;3.63;;;2.38;;
27804;SDS011;15183;51.350;11.102;2022-10-16T06:58:55;4.20;;;2.53;;
27804;SDS011;15183;51.350;11.102;2022-10-16T07:01:24;3.75;;;3.05;;
27804;SDS011;15183;51.350;11.102;2022-10-16T07:03:52;10.82;;;7.45;;
27804;SDS011;15183;51.350;11.102;2022-10-16T07:06:20;7.05;;;5.00;;
27804;SDS011;15183;51.350;11.102;2022-10-16T07:08:49;14.90;;;10.20;;
27804;SDS011;15183;51.350;11.102;2022-10-16T07:11:17;11.40;;;8.50;;
27804;SDS011;15183;51.350;11.102;2022-10-16T07:13:47;12.25;;;8.75;;
27804;SDS011;15183;51.350;11.102;2022-10-16T07:16:17;5.93;;;3.47;;
27804;SDS011;15183;51.350;11.102;2022-10-16T07:18:46;8.55;;;4.82;;
27804;SDS011;15183;51.350;11.102;2022-10-16T07:21:15;5.35;;;4.40;;
27804;SDS011;15183;51.350;11.102;2022-10-16T07:23:45;8.20;;;6.57;;
27804;SDS011;15183;51.350;11.102;2022-10-16T07:26:18;5.72;;;5.03;;
27804;SDS011;15183;51.350;11.102;2022-10-16T07:28:45;7.97;;;5.47;;
27804;SDS011;15183;51.350;11.102;2022-10-16T07:31:12;9.43;;;6.47;;
27804;SDS011;15183;51.350;11.102;2022-10-16T07:33:40;4.75;;;3.83;;
27804;SDS011;15183;51.350;11.102;2022-10-16T07:36:10;7.28;;;5.57;;
27804;SDS011;15183;51.350;11.102;2022-10-16T07:38:38;6.93;;;4.85;;
27804;SDS011;15183;51.350;11.102;2022-10-16T07:41:05;4.07;;;3.20;;
27804;SDS011;15183;51.350;11.102;2022-10-16T07:43:34;7.13;;;4.30;;
27804;SDS011;15183;51.350;11.102;2022-10-16T07:46:01;7.80;;;5.53;;
27804;SDS011;15183;51.350;11.102;2022-10-16T07:48:29;8.82;;;4.90;;
27804;SDS011;15183;51.350;11.102;2022-10-16T07:50:58;6.03;;;4.25;;
27804;SDS011;15183;51.350;11.102;2022-10-16T07:53:30;2.67;;;2.10;;
27804;SDS011;15183;51.350;11.102;2022-10-16T07:56:02;4.57;;;2.45;;
27804;SDS011;15183;51.350;11.102;2022-10-16T07:58:31;7.80;;;4.97;;
27804;SDS011;15183;51.350;11.102;2022-10-16T08:01:02;9.77;;;6.70;;
27804;SDS011;15183;51.350;11.102;2022-10-16T08:03:34;9.43;;;7.20;;
27804;SDS011;15183;51.350;11.102;2022-10-16T08:06:00;8.65;;;5.05;;
27804;SDS011;15183;51.350;11.102;2022-10-16T08:08:27;5.63;;;3.90;;
27804;SDS011;15183;51.350;11.102;2022-10-16T08:10:55;6.95;;;4.75;;
27804;SDS011;15183;51.350;11.102;2022-10-16T08:13:21;6.63;;;4.40;;
27804;SDS011;15183;51.350;11.102;2022-10-16T08:15:48;9.70;;;7.75;;
27804;SDS011;15183;51.350;11.102;2022-10-16T08:18:15;7.82;;;5.93;;
27804;SDS011;15183;51.350;11.102;2022-10-16T08:20:42;4.57;;;3.80;;
27804;SDS011;15183;51.350;11.102;2022-10-16T08:23:09;10.23;;;7.93;;
27804;SDS011;15183;51.350;11.102;2022-10-16T08:25:39;7.07;;;4.80;;
27804;SDS011;15183;51.350;11.102;2022-10-16T08:28:07;5.97;;;4.72;;
27804;SDS011;15183;51.350;11.102;2022-10-16T08:30:36;1.95;;;1.77;;
27804;SDS011;15183;51.350;11.102;2022-10-16T08:33:03;5.35;;;3.85;;
27804;SDS011;15183;51.350;11.102;2022-10-16T08:35:29;3.03;;;2.72;;
27804;SDS011;15183;51.350;11.102;2022-10-16T08:37:56;4.00;;;3.40;;
27804;SDS011;15183;51.350;11.102;2022-10-16T08:40:24;5.32;;;3.22;;
27804;SDS011;15183;51.350;11.102;2022-10-16T08:49:28;2.95;;;1.98;;
27804;SDS011;15183;51.350;11.102;2022-10-16T08:51:56;5.47;;;3.80;;
27804;SDS011;15183;51.350;11.102;2022-10-16T08:57:15;1.80;;;1.58;;
27804;SDS011;15183;51.350;11.102;2022-10-16T08:59:46;2.92;;;2.53;;
27804;SDS011;15183;51.350;11.102;2022-10-16T09:02:28;1.30;;;1.20;;
27804;SDS011;15183;51.350;11.102;2022-10-16T09:08:13;1.45;;;1.35;;
27804;SDS011;15183;51.350;11.102;2022-10-16T09:11:16;1.45;;;1.25;;
27804;SDS011;15183;51.350;11.102;2022-10-16T09:16:51;5.78;;;3.65;;
27804;SDS011;15183;51.350;11.102;2022-10-16T09:19:31;7.90;;;6.22;;
27804;SDS011;15183;51.350;11.102;2022-10-16T09:22:10;8.82;;;7.55;;
27804;SDS011;15183;51.350;11.102;2022-10-16T09:24:40;6.75;;;4.15;;
27804;SDS011;15183;51.350;11.102;2022-10-16T09:27:11;3.65;;;2.92;;
27804;SDS011;15183;51.350;11.102;2022-10-16T09:29:40;6.53;;;5.75;;
27804;SDS011;15183;51.350;11.102;2022-10-16T09:32:17;7.35;;;5.32;;
27804;SDS011;15183;51.350;11.102;2022-10-16T09:34:50;9.18;;;7.88;;
27804;SDS011;15183;51.350;11.102;2022-10-16T09:37:22;6.05;;;4.82;;
27804;SDS011;15183;51.350;11.102;2022-10-16T09:39:51;8.70;;;5.63;;
27804;SDS011;15183;51.350;11.102;2022-10-16T09:42:33;10.65;;;6.78;;
27804;SDS011;15183;51.350;11.102;2022-10-16T09:45:02;5.65;;;4.60;;
27804;SDS011;15183;51.350;11.102;2022-10-16T09:47:30;2.75;;;2.30;;
27804;SDS011;15183;51.350;11.102;2022-10-16T09:50:05;7.30;;;3.00;;
27804;SDS011;15183;51.350;11.102;2022-10-16T09:52:46;4.78;;;2.78;;
27804;SDS011;15183;51.350;11.102;2022-10-16T09:55:16;2.10;;;1.92;;
27804;SDS011;15183;51.350;11.102;2022-10-16T09:57:53;2.60;;;2.00;;
27804;SDS011;15183;51.350;11.102;2022-10-16T10:00:21;2.38;;;1.05;;
27804;SDS011;15183;51.350;11.102;2022-10-16T10:02:49;1.17;;;1.08;;
27804;SDS011;15183;51.350;11.102;2022-10-16T10:05:20;1.23;;;1.13;;
27804;SDS011;15183;51.350;11.102;2022-10-16T10:07:56;1.38;;;0.77;;
27804;SDS011;15183;51.350;11.102;2022-10-16T10:10:26;1.75;;;0.95;;
27804;SDS011;15183;51.350;11.102;2022-10-16T10:12:55;1.30;;;1.20;;
27804;SDS011;15183;51.350;11.102;2022-10-16T10:15:23;2.13;;;1.85;;
27804;SDS011;15183;51.350;11.102;2022-10-16T10:17:53;2.08;;;1.67;;
27804;SDS011;15183;51.350;11.102;2022-10-16T10:23:00;1.20;;;0.93;;
27804;SDS011;15183;51.350;11.102;2022-10-16T10:25:49;1.60;;;1.48;;
27804;SDS011;15183;51.350;11.102;2022-10-16T10:31:17;2.25;;;2.05;;
27804;SDS011;15183;51.350;11.102;2022-10-16T10:36:46;3.22;;;1.80;;
27804;SDS011;15183;51.350;11.102;2022-10-16T10:39:25;2.50;;;1.98;;
27804;SDS011;15183;51.350;11.102;2022-10-16T10:42:44;2.80;;;2.13;;
27804;SDS011;15183;51.350;11.102;2022-10-16T10:50:57;1.73;;;1.10;;
27804;SDS011;15183;51.350;11.102;2022-10-16T11:01:33;2.38;;;1.60;;
27804;SDS011;15183;51.350;11.102;2022-10-16T11:04:20;1.30;;;1.20;;
27804;SDS011;15183;51.350;11.102;2022-10-16T11:12:57;0.90;;;0.80;;
27804;SDS011;15183;51.350;11.102;2022-10-16T11:15:42;1.15;;;0.95;;
27804;SDS011;15183;51.350;11.102;2022-10-16T11:18:19;1.10;;;1.00;;
27804;SDS011;15183;51.350;11.102;2022-10-16T11:20:57;1.20;;;0.95;;
27804;SDS011;15183;51.350;11.102;2022-10-16T11:23:35;1.85;;;1.75;;
27804;SDS011;15183;51.350;11.102;2022-10-16T11:26:20;8.73;;;6.13;;
27804;SDS011;15183;51.350;11.102;2022-10-16T11:28:53;1.65;;;1.55;;
27804;SDS011;15183;51.350;11.102;2022-10-16T11:31:24;3.05;;;1.83;;
27804;SDS011;15183;51.350;11.102;2022-10-16T11:37:20;4.45;;;2.13;;
27804;SDS011;15183;51.350;11.102;2022-10-16T11:43:22;1.05;;;0.93;;
27804;SDS011;15183;51.350;11.102;2022-10-16T11:45:53;2.58;;;1.55;;
27804;SDS011;15183;51.350;11.102;2022-10-16T11:56:54;1.33;;;1.10;;
27804;SDS011;15183;51.350;11.102;2022-10-16T11:59:31;1.63;;;0.82;;
27804;SDS011;15183;51.350;11.102;2022-10-16T12:08:15;0.60;;;0.50;;
27804;SDS011;15183;51.350;11.102;2022-10-16T12:10:43;1.10;;;0.77;;
27804;SDS011;15183;51.350;11.102;2022-10-16T12:13:27;0.47;;;0.47;;
27804;SDS011;15183;51.350;11.102;2022-10-16T12:16:06;0.43;;;0.43;;
27804;SDS011;15183;51.350;11.102;2022-10-16T12:18:48;0.45;;;0.30;;
27804;SDS011;15183;51.350;11.102;2022-10-16T12:21:16;0.73;;;0.35;;
27804;SDS011;15183;51.350;11.102;2022-10-16T12:23:49;0.30;;;0.30;;
27804;SDS011;15183;51.350;11.102;2022-10-16T12:26:24;0.40;;;0.38;;
27804;SDS011;15183;51.350;11.102;2022-10-16T12:29:12;1.02;;;0.30;;
27804;SDS011;15183;51.350;11.102;2022-10-16T12:31:43;0.25;;;0.25;;
27804;SDS011;15183;51.350;11.102;2022-10-16T12:34:25;0.30;;;0.30;;
27804;SDS011;15183;51.350;11.102;2022-10-16T12:37:10;0.93;;;0.28;;
27804;SDS011;15183;51.350;11.102;2022-10-16T12:39:45;0.57;;;0.20;;
27804;SDS011;15183;51.350;11.102;2022-10-16T12:42:22;2.70;;;0.38;;
27804;SDS011;15183;51.350;11.102;2022-10-16T12:45:00;0.70;;;0.38;;
27804;SDS011;15183;51.350;11.102;2022-10-16T12:49:56;0.38;;;0.38;;
27804;SDS011;15183;51.350;11.102;2022-10-16T12:52:37;0.47;;;0.30;;
27804;SDS011;15183;51.350;11.102;2022-10-16T12:55:05;0.30;;;0.30;;
27804;SDS011;15183;51.350;11.102;2022-10-16T13:00:50;0.35;;;0.30;;
27804;SDS011;15183;51.350;11.102;2022-10-16T13:03:34;1.10;;;0.40;;
27804;SDS011;15183;51.350;11.102;2022-10-16T13:06:08;0.20;;;0.20;;
27804;SDS011;15183;51.350;11.102;2022-10-16T13:25:19;0.10;;;0.10;;
27804;SDS011;15183;51.350;11.102;2022-10-16T13:28:06;0.40;;;0.30;;
27804;SDS011;15183;51.350;11.102;2022-10-16T13:33:13;1.02;;;0.30;;
27804;SDS011;15183;51.350;11.102;2022-10-16T13:35:59;0.40;;;0.38;;
27804;SDS011;15183;51.350;11.102;2022-10-16T13:38:28;0.30;;;0.30;;
27804;SDS011;15183;51.350;11.102;2022-10-16T13:41:01;2.22;;;0.43;;
27804;SDS011;15183;51.350;11.102;2022-10-16T13:43:43;0.80;;;0.45;;
27804;SDS011;15183;51.350;11.102;2022-10-16T13:48:56;1.08;;;0.98;;
27804;SDS011;15183;51.350;11.102;2022-10-16T13:51:24;0.77;;;0.65;;
27804;SDS011;15183;51.350;11.102;2022-10-16T13:53:52;1.42;;;0.45;;
27804;SDS011;15183;51.350;11.102;2022-10-16T13:56:21;1.00;;;0.60;;
27804;SDS011;15183;51.350;11.102;2022-10-16T13:58:58;0.50;;;0.50;;
27804;SDS011;15183;51.350;11.102;2022-10-16T14:01:31;0.82;;;0.50;;
27804;SDS011;15183;51.350;11.102;2022-10-16T14:04:05;0.43;;;0.43;;
27804;SDS011;15183;51.350;11.102;2022-10-16T14:06:35;0.45;;;0.45;;
27804;SDS011;15183;51.350;11.102;2022-10-16T14:09:06;0.60;;;0.50;;
27804;SDS011;15183;51.350;11.102;2022-10-16T14:11:42;0.88;;;0.35;;
27804;SDS011;15183;51.350;11.102;2022-10-16T14:14:17;0.75;;;0.68;;
27804;SDS011;15183;51.350;11.102;2022-10-16T14:16:47;0.43;;;0.35;;
27804;SDS011;15183;51.350;11.102;2022-10-16T14:19:25;0.35;;;0.30;;
27804;SDS011;15183;51.350;11.102;2022-10-16T14:21:55;1.25;;;0.60;;
27804;SDS011;15183;51.350;11.102;2022-10-16T14:24:42;0.40;;;0.40;;
27804;SDS011;15183;51.350;11.102;2022-10-16T14:27:27;2.53;;;2.00;;
27804;SDS011;15183;51.350;11.102;2022-10-16T14:30:13;1.38;;;0.80;;
27804;SDS011;15183;51.350;11.102;2022-10-16T14:32:57;0.55;;;0.50;;
27804;SDS011;15183;51.350;11.102;2022-10-16T14:35:30;1.05;;;0.43;;
27804;SDS011;15183;51.350;11.102;2022-10-16T14:38:02;0.30;;;0.30;;
27804;SDS011;15183;51.350;11.102;2022-10-16T14:40:31;0.85;;;0.40;;
27804;SDS011;15183;51.350;11.102;2022-10-16T14:43:03;0.50;;;0.50;;
27804;SDS011;15183;51.350;11.102;2022-10-16T14:45:31;0.60;;;0.40;;
27804;SDS011;15183;51.350;11.102;2022-10-16T14:48:02;1.13;;;0.40;;
27804;SDS011;15183;51.350;11.102;2022-10-16T14:50:41;0.30;;;0.30;;
27804;SDS011;15183;51.350;11.102;2022-10-16T14:53:13;0.65;;;0.30;;
27804;SDS011;15183;51.350;11.102;2022-10-16T14:55:41;0.95;;;0.40;;
27804;SDS011;15183;51.350;11.102;2022-10-16T14:58:15;0.55;;;0.55;;
27804;SDS011;15183;51.350;11.102;2022-10-16T15:00:45;2.90;;;0.40;;
27804;SDS011;15183;51.350;11.102;2022-10-16T15:03:12;0.50;;;0.50;;
27804;SDS011;15183;51.350;11.102;2022-10-16T15:05:40;0.88;;;0.57;;
27804;SDS011;15183;51.350;11.102;2022-10-16T15:08:06;0.93;;;0.50;;
27804;SDS011;15183;51.350;11.102;2022-10-16T15:10:35;0.73;;;0.43;;
27804;SDS011;15183;51.350;11.102;2022-10-16T15:13:06;0.70;;;0.65;;
27804;SDS011;15183;51.350;11.102;2022-10-16T15:15:38;1.10;;;0.40;;
27804;SDS011;15183;51.350;11.102;2022-10-16T15:18:11;0.88;;;0.60;;
27804;SDS011;15183;51.350;11.102;2022-10-16T15:20:40;1.52;;;0.70;;
27804;SDS011;15183;51.350;11.102;2022-10-16T15:23:13;0.57;;;0.57;;
27804;SDS011;15183;51.350;11.102;2022-10-16T15:28:18;2.97;;;1.02;;
27804;SDS011;15183;51.350;11.102;2022-10-16T15:30:46;2.88;;;0.80;;
27804;SDS011;15183;51.350;11.102;2022-10-16T15:33:18;0.85;;;0.85;;
27804;SDS011;15183;51.350;11.102;2022-10-16T15:35:52;1.27;;;1.10;;
27804;SDS011;15183;51.350;11.102;2022-10-16T15:38:20;3.80;;;1.02;;
27804;SDS011;15183;51.350;11.102;2022-10-16T15:40:48;1.42;;;1.33;;
27804;SDS011;15183;51.350;11.102;2022-10-16T15:43:15;3.67;;;1.45;;
27804;SDS011;15183;51.350;11.102;2022-10-16T15:45:41;3.53;;;1.95;;
27804;SDS011;15183;51.350;11.102;2022-10-16T15:48:11;1.70;;;1.48;;
27804;SDS011;15183;51.350;11.102;2022-10-16T15:50:41;1.92;;;1.77;;
27804;SDS011;15183;51.350;11.102;2022-10-16T15:53:08;1.63;;;1.48;;
27804;SDS011;15183;51.350;11.102;2022-10-16T15:55:34;3.42;;;1.63;;
27804;SDS011;15183;51.350;11.102;2022-10-16T15:58:03;1.85;;;1.67;;
27804;SDS011;15183;51.350;11.102;2022-10-16T16:00:31;2.60;;;2.10;;
27804;SDS011;15183;51.350;11.102;2022-10-16T16:02:57;1.55;;;1.10;;
27804;SDS011;15183;51.350;11.102;2022-10-16T16:05:24;1.42;;;1.25;;
27804;SDS011;15183;51.350;11.102;2022-10-16T16:07:51;1.92;;;1.70;;
27804;SDS011;15183;51.350;11.102;2022-10-16T16:10:17;3.35;;;2.38;;
27804;SDS011;15183;51.350;11.102;2022-10-16T16:12:47;4.70;;;4.07;;
27804;SDS011;15183;51.350;11.102;2022-10-16T16:15:17;4.00;;;3.60;;
27804;SDS011;15183;51.350;11.102;2022-10-16T16:17:45;5.47;;;3.95;;
27804;SDS011;15183;51.350;11.102;2022-10-16T16:20:12;3.30;;;3.00;;
27804;SDS011;15183;51.350;11.102;2022-10-16T16:22:39;2.22;;;1.42;;
27804;SDS011;15183;51.350;11.102;2022-10-16T16:25:06;8.93;;;1.30;;
27804;SDS011;15183;51.350;11.102;2022-10-16T16:27:33;4.80;;;2.67;;
27804;SDS011;15183;51.350;11.102;2022-10-16T16:30:02;2.63;;;2.40;;
27804;SDS011;15183;51.350;11.102;2022-10-16T16:32:30;7.82;;;4.18;;
27804;SDS011;15183;51.350;11.102;2022-10-16T16:34:57;11.90;;;5.43;;
27804;SDS011;15183;51.350;11.102;2022-10-16T16:37:23;8.18;;;5.70;;
27804;SDS011;15183;51.350;11.102;2022-10-16T16:39:50;16.77;;;10.73;;
27804;SDS011;15183;51.350;11.102;2022-10-16T16:42:19;11.73;;;8.70;;
27804;SDS011;15183;51.350;11.102;2022-10-16T16:44:49;8.68;;;6.15;;
27804;SDS011;15183;51.350;11.102;2022-10-16T16:47:16;4.20;;;3.17;;